createdAt,value
2023-03-06T00:00:25.804Z,19.90
2023-03-06T00:02:52.916Z,23.37
2023-03-06T00:05:20.188Z,21.73
2023-03-06T00:07:46.983Z,20.48
2023-03-06T00:10:19.703Z,24.13
2023-03-06T00:12:46.597Z,23.05
2023-03-06T00:15:14.423Z,22.33
2023-03-06T00:17:41.393Z,22.63
2023-03-06T00:20:10.214Z,25.38
2023-03-06T00:22:36.987Z,27.42
2023-03-06T00:25:04.663Z,27.27
2023-03-06T00:27:32.459Z,31.03
2023-03-06T00:29:59.971Z,26.17
2023-03-06T00:32:27.938Z,25.98
2023-03-06T00:34:55.576Z,23.15
2023-03-06T00:37:24.210Z,23.38
2023-03-06T00:39:51.615Z,22.17
2023-03-06T00:42:19.024Z,25.15
2023-03-06T00:44:46.246Z,23.92
2023-03-06T00:47:17.035Z,20.92
2023-03-06T00:49:45.107Z,20.05
2023-03-06T00:52:13.234Z,18.57
2023-03-06T00:54:40.857Z,18.40
2023-03-06T00:57:08.264Z,17.98
2023-03-06T00:59:35.234Z,17.58
2023-03-06T01:02:02.560Z,16.65
2023-03-06T01:04:29.336Z,16.63
2023-03-06T01:06:56.382Z,17.23
2023-03-06T01:09:23.242Z,18.15
2023-03-06T01:11:49.957Z,16.45
2023-03-06T01:14:18.986Z,19.17
2023-03-06T01:16:46.868Z,17.63
2023-03-06T01:19:14.047Z,20.48
2023-03-06T01:21:40.756Z,16.40
2023-03-06T01:24:07.679Z,16.90
2023-03-06T01:26:34.644Z,16.05
2023-03-06T01:29:02.065Z,16.23
2023-03-06T01:31:29.016Z,19.23
2023-03-06T01:33:55.715Z,12.40
2023-03-06T01:36:22.434Z,15.18
2023-03-06T01:38:49.156Z,11.55
2023-03-06T01:41:16.093Z,13.23
2023-03-06T01:43:45.615Z,13.20
2023-03-06T01:46:41.952Z,12.02
2023-03-06T01:49:22.120Z,15.27
2023-03-06T01:52:01.636Z,13.52
2023-03-06T01:54:37.819Z,13.93
2023-03-06T01:57:11.649Z,11.55
2023-03-06T01:59:40.433Z,13.38
2023-03-06T02:02:10.725Z,12.23
2023-03-06T02:04:40.069Z,11.63
2023-03-06T02:07:08.850Z,10.43
2023-03-06T02:09:37.154Z,10.43
2023-03-06T02:12:10.267Z,8.57
2023-03-06T02:14:38.675Z,13.00
2023-03-06T02:17:05.898Z,8.70
2023-03-06T02:19:57.999Z,10.03
2023-03-06T02:22:31.774Z,9.45
2023-03-06T02:25:21.046Z,7.20
2023-03-06T02:27:48.568Z,6.43
2023-03-06T02:30:17.686Z,8.00
2023-03-06T02:32:44.451Z,6.53
2023-03-06T02:35:20.469Z,6.80
2023-03-06T02:37:47.580Z,7.63
2023-03-06T02:40:16.018Z,7.88
2023-03-06T02:42:51.801Z,9.13
2023-03-06T02:45:25.983Z,8.93
2023-03-06T02:47:52.755Z,13.27
2023-03-06T02:50:19.587Z,8.65
2023-03-06T02:52:46.294Z,13.07
2023-03-06T02:55:13.049Z,11.05
2023-03-06T02:57:39.851Z,11.10
2023-03-06T03:00:07.728Z,13.30
2023-03-06T03:02:34.547Z,9.88
2023-03-06T03:05:01.294Z,10.18
2023-03-06T03:07:28.025Z,9.45
2023-03-06T03:09:54.793Z,11.30
2023-03-06T03:12:22.399Z,10.18
2023-03-06T03:14:49.511Z,13.10
2023-03-06T03:17:16.566Z,9.32
2023-03-06T03:19:43.272Z,10.07
2023-03-06T03:22:10.023Z,9.90
2023-03-06T03:24:36.711Z,8.00
2023-03-06T03:27:03.634Z,10.43
2023-03-06T03:29:30.407Z,10.30
2023-03-06T03:31:57.089Z,7.78
2023-03-06T03:34:23.869Z,10.67
2023-03-06T03:36:50.570Z,8.05
2023-03-06T03:39:17.269Z,8.98
2023-03-06T03:41:44.419Z,10.02
2023-03-06T03:44:11.655Z,9.48
2023-03-06T03:46:38.920Z,12.60
2023-03-06T03:49:06.044Z,9.75
2023-03-06T03:51:32.954Z,8.27
2023-03-06T03:53:59.715Z,7.07
2023-03-06T03:56:27.021Z,6.57
2023-03-06T03:58:54.470Z,5.93
2023-03-06T04:01:21.309Z,8.10
2023-03-06T04:03:48.066Z,6.70
2023-03-06T04:06:14.985Z,6.97
2023-03-06T04:08:41.702Z,5.47
2023-03-06T04:11:08.399Z,4.97
2023-03-06T04:13:35.217Z,5.75
2023-03-06T04:16:02.258Z,7.45
2023-03-06T04:18:29.000Z,6.57
2023-03-06T04:20:55.815Z,5.07
2023-03-06T04:23:24.244Z,5.10
2023-03-06T04:25:51.415Z,5.93
2023-03-06T04:28:18.086Z,8.93
2023-03-06T04:30:44.844Z,5.43
2023-03-06T04:33:11.720Z,5.22
2023-03-06T04:35:38.851Z,3.57
2023-03-06T04:38:06.077Z,4.35
2023-03-06T04:40:35.610Z,5.50
2023-03-06T04:43:04.208Z,7.80
2023-03-06T04:45:32.525Z,4.18
2023-03-06T04:47:59.628Z,6.30
2023-03-06T04:50:28.313Z,8.70
2023-03-06T04:52:55.139Z,5.93
2023-03-06T04:55:21.911Z,7.20
2023-03-06T04:57:48.602Z,8.32
2023-03-06T05:00:21.588Z,8.07
2023-03-06T05:02:49.223Z,4.05
2023-03-06T05:05:17.096Z,8.20
2023-03-06T05:07:44.617Z,5.57
2023-03-06T05:10:17.187Z,4.93
2023-03-06T05:12:44.052Z,6.30
2023-03-06T05:15:12.183Z,6.90
2023-03-06T05:17:39.118Z,5.43
2023-03-06T05:20:11.918Z,3.83
2023-03-06T05:22:39.113Z,5.88
2023-03-06T05:25:06.919Z,6.20
2023-03-06T05:27:33.866Z,8.98
2023-03-06T05:30:00.792Z,11.25
2023-03-06T05:32:27.768Z,16.63
2023-03-06T05:34:54.797Z,9.93
2023-03-06T05:37:23.061Z,9.90
2023-03-06T05:39:50.600Z,10.10
2023-03-06T05:42:18.518Z,5.60
2023-03-06T05:44:45.785Z,8.95
2023-03-06T05:47:12.697Z,5.38
2023-03-06T05:49:39.510Z,6.63
2023-03-06T05:52:07.341Z,6.57
2023-03-06T05:54:35.976Z,7.25
2023-03-06T05:57:04.919Z,5.03
2023-03-06T05:59:33.003Z,5.82
2023-03-06T06:02:01.230Z,5.67
2023-03-06T06:04:28.121Z,6.28
2023-03-06T06:06:57.026Z,5.68
2023-03-06T06:09:24.229Z,6.90
2023-03-06T06:11:56.159Z,7.15
2023-03-06T06:14:23.699Z,10.53
2023-03-06T06:16:50.510Z,11.18
2023-03-06T06:19:20.430Z,11.52
2023-03-06T06:21:49.111Z,14.77
2023-03-06T06:24:17.438Z,11.77
2023-03-06T06:26:45.162Z,10.93
2023-03-06T06:29:12.964Z,15.15
2023-03-06T06:31:40.173Z,8.82
2023-03-06T06:34:07.689Z,16.88
2023-03-06T06:36:34.860Z,27.75
2023-03-06T06:39:01.709Z,20.97
2023-03-06T06:41:50.578Z,14.52
2023-03-06T06:44:16.232Z,10.82
2023-03-06T06:49:32.541Z,10.82
2023-03-06T06:51:59.674Z,7.53
2023-03-06T06:54:26.734Z,7.47
2023-03-06T06:56:54.044Z,8.77
2023-03-06T06:59:23.577Z,8.88
2023-03-06T07:01:51.374Z,7.03
2023-03-06T07:04:19.205Z,5.70
2023-03-06T07:06:46.301Z,5.22
2023-03-06T07:09:13.591Z,6.97
2023-03-06T07:11:41.027Z,4.10
2023-03-06T07:14:07.847Z,6.60
2023-03-06T07:16:34.912Z,7.93
2023-03-06T07:19:01.693Z,3.92
2023-03-06T07:21:28.509Z,7.72
2023-03-06T07:23:57.389Z,6.65
2023-03-06T07:26:28.021Z,4.30
2023-03-06T07:28:55.234Z,4.20
2023-03-06T07:31:25.314Z,4.55
2023-03-06T07:33:54.181Z,4.65
2023-03-06T07:36:23.079Z,6.85
2023-03-06T07:38:49.941Z,5.03
2023-03-06T07:41:20.385Z,5.07
2023-03-06T07:43:49.123Z,3.55
2023-03-06T07:46:15.923Z,3.00
2023-03-06T07:48:43.118Z,3.30
2023-03-06T07:51:16.196Z,4.20
2023-03-06T07:53:43.357Z,5.63
2023-03-06T07:56:11.932Z,4.60
2023-03-06T07:58:40.437Z,2.40
2023-03-06T08:01:10.462Z,4.32
2023-03-06T08:03:37.569Z,2.67
2023-03-06T08:06:09.069Z,3.93
2023-03-06T08:08:37.502Z,5.57
2023-03-06T08:11:04.404Z,7.32
2023-03-06T08:13:31.306Z,5.43
2023-03-06T08:15:59.797Z,5.18
2023-03-06T08:18:27.600Z,2.87
2023-03-06T08:21:09.588Z,4.10
2023-03-06T08:23:36.568Z,4.57
2023-03-06T08:26:06.773Z,4.07
2023-03-06T08:28:34.306Z,4.50
2023-03-06T08:31:13.083Z,3.37
2023-03-06T08:33:40.925Z,3.25
2023-03-06T08:36:08.061Z,2.95
2023-03-06T08:38:34.812Z,2.63
2023-03-06T08:41:01.676Z,5.07
2023-03-06T08:43:28.600Z,2.57
2023-03-06T08:45:57.036Z,1.92
2023-03-06T08:48:24.579Z,1.90
2023-03-06T08:50:52.132Z,3.08
2023-03-06T08:53:18.967Z,2.25
2023-03-06T08:55:46.228Z,2.30
2023-03-06T08:58:13.020Z,1.48
2023-03-06T09:00:40.104Z,2.00
2023-03-06T09:03:06.737Z,1.67
2023-03-06T09:05:34.022Z,3.63
2023-03-06T09:08:00.715Z,2.17
2023-03-06T09:10:27.951Z,1.75
2023-03-06T09:12:55.464Z,1.30
2023-03-06T09:15:23.509Z,1.27
2023-03-06T09:17:50.978Z,2.15
2023-03-06T09:20:18.821Z,3.20
2023-03-06T09:22:45.900Z,1.38
2023-03-06T09:25:13.828Z,2.95
2023-03-06T09:27:41.309Z,3.20
2023-03-06T09:30:09.223Z,2.63
2023-03-06T09:32:35.996Z,3.47
2023-03-06T09:35:02.823Z,2.95
2023-03-06T09:37:29.877Z,1.95
2023-03-06T09:39:57.759Z,2.00
2023-03-06T09:42:24.907Z,2.95
2023-03-06T09:44:58.683Z,4.40
2023-03-06T09:47:59.289Z,8.45
2023-03-06T09:50:34.885Z,2.58
2023-03-06T09:53:32.418Z,3.45
2023-03-06T09:56:20.903Z,2.53
2023-03-06T09:58:53.153Z,2.40
2023-03-06T10:01:26.120Z,1.35
2023-03-06T10:04:31.696Z,2.72
2023-03-06T10:07:20.804Z,1.92
2023-03-06T10:09:59.968Z,2.65
2023-03-06T10:12:32.825Z,4.27
2023-03-06T10:15:19.839Z,4.93
2023-03-06T10:17:46.702Z,3.00
2023-03-06T10:20:22.853Z,3.65
2023-03-06T10:23:05.498Z,3.63
2023-03-06T10:25:56.898Z,4.43
2023-03-06T10:29:01.003Z,2.22
2023-03-06T10:31:28.789Z,2.80
2023-03-06T10:34:11.821Z,3.05
2023-03-06T10:36:38.489Z,4.15
2023-03-06T10:39:14.008Z,3.50
2023-03-06T10:41:40.698Z,5.72
2023-03-06T10:44:08.997Z,4.03
2023-03-06T10:46:37.390Z,3.25
2023-03-06T10:49:06.410Z,3.65
2023-03-06T10:51:35.488Z,4.23
2023-03-06T10:54:03.921Z,3.47
2023-03-06T10:56:42.463Z,2.40
2023-03-06T10:59:25.325Z,3.20
2023-03-06T11:02:15.643Z,6.28
2023-03-06T11:04:47.170Z,4.67
2023-03-06T11:07:19.584Z,4.18
2023-03-06T11:10:02.319Z,5.10
2023-03-06T11:12:40.510Z,6.00
2023-03-06T11:15:09.985Z,5.78
2023-03-06T11:17:48.079Z,6.10
2023-03-06T11:20:14.948Z,8.10
2023-03-06T11:22:45.104Z,5.65
2023-03-06T11:25:14.920Z,8.05
2023-03-06T11:27:45.486Z,10.20
2023-03-06T11:30:21.088Z,5.00
2023-03-06T11:33:02.172Z,6.50
2023-03-06T11:35:50.729Z,6.47
2023-03-06T11:38:38.723Z,8.48
2023-03-06T11:41:16.054Z,6.68
2023-03-06T11:44:24.252Z,6.00
2023-03-06T11:47:13.412Z,8.00
2023-03-06T11:49:44.201Z,7.72
2023-03-06T11:52:19.526Z,9.25
2023-03-06T11:54:52.962Z,7.13
2023-03-06T11:57:24.626Z,8.37
2023-03-06T12:00:53.813Z,6.80
2023-03-06T12:03:38.197Z,7.95
2023-03-06T12:06:18.176Z,9.95
2023-03-06T12:09:06.699Z,8.70
2023-03-06T12:11:42.620Z,9.17
2023-03-06T12:14:39.275Z,7.63
2023-03-06T12:17:31.810Z,8.43
2023-03-06T12:20:25.365Z,12.93
2023-03-06T12:23:14.539Z,9.75
2023-03-06T12:25:55.376Z,9.17
2023-03-06T12:29:00.103Z,13.23
2023-03-06T12:31:53.356Z,9.82
2023-03-06T12:34:32.012Z,11.52
2023-03-06T12:37:27.097Z,9.90
2023-03-06T12:39:57.074Z,9.43
2023-03-06T12:42:34.392Z,9.65
2023-03-06T12:45:22.205Z,8.98
2023-03-06T12:47:52.342Z,8.73
2023-03-06T12:50:29.954Z,8.07
2023-03-06T12:53:03.190Z,6.03
2023-03-06T12:55:46.428Z,10.15
2023-03-06T12:58:28.453Z,6.70
2023-03-06T13:01:17.170Z,7.32
2023-03-06T13:04:11.986Z,6.45
2023-03-06T13:06:54.154Z,7.83
2023-03-06T13:09:39.585Z,5.97
2023-03-06T13:12:09.061Z,4.93
2023-03-06T13:14:42.347Z,3.90
2023-03-06T13:17:21.346Z,6.22
2023-03-06T13:19:48.699Z,6.37
2023-03-06T13:22:27.809Z,10.13
2023-03-06T13:25:19.774Z,7.82
2023-03-06T13:27:55.664Z,7.88
2023-03-06T13:30:45.802Z,8.32
2023-03-06T13:33:27.244Z,10.70
2023-03-06T13:35:59.069Z,9.30
2023-03-06T13:38:53.662Z,7.72
2023-03-06T13:41:20.831Z,5.72
2023-03-06T13:43:55.275Z,5.70
2023-03-06T13:46:26.198Z,5.33
2023-03-06T13:49:08.575Z,7.55
2023-03-06T13:51:41.840Z,5.75
2023-03-06T13:54:45.999Z,10.40
2023-03-06T13:57:50.481Z,9.93
2023-03-06T14:00:38.789Z,8.63
2023-03-06T14:03:40.458Z,11.57
2023-03-06T14:06:34.926Z,9.55
2023-03-06T14:09:06.780Z,7.97
2023-03-06T14:11:35.479Z,10.70
2023-03-06T14:14:02.457Z,8.83
2023-03-06T14:16:49.883Z,8.65
2023-03-06T14:19:18.747Z,8.13
2023-03-06T14:21:47.687Z,8.85
2023-03-06T14:24:20.590Z,6.60
2023-03-06T14:26:50.458Z,8.53
2023-03-06T14:29:24.180Z,6.40
2023-03-06T14:31:56.807Z,6.18
2023-03-06T14:34:27.502Z,4.63
2023-03-06T14:36:58.077Z,8.25
2023-03-06T14:39:32.761Z,8.23
2023-03-06T14:42:08.243Z,3.83
2023-03-06T14:44:35.331Z,5.13
2023-03-06T14:47:27.311Z,5.25
2023-03-06T14:50:19.292Z,4.75
2023-03-06T14:52:46.419Z,2.87
2023-03-06T14:55:20.337Z,5.72
2023-03-06T14:57:50.547Z,4.82
2023-03-06T15:00:21.509Z,6.25
2023-03-06T15:02:54.152Z,3.60
2023-03-06T15:05:26.703Z,3.83
2023-03-06T15:07:57.802Z,3.63
2023-03-06T15:10:31.428Z,6.28
2023-03-06T15:13:31.532Z,6.25
2023-03-06T15:16:23.869Z,4.95
2023-03-06T15:19:00.871Z,5.33
2023-03-06T15:21:31.102Z,8.18
2023-03-06T15:23:58.285Z,6.93
2023-03-06T15:26:37.855Z,4.07
2023-03-06T15:29:10.968Z,5.32
2023-03-06T15:31:42.814Z,6.20
2023-03-06T15:34:09.540Z,4.97
2023-03-06T15:36:48.449Z,4.90
2023-03-06T15:39:32.245Z,5.47
2023-03-06T15:42:02.584Z,6.28
2023-03-06T15:44:32.313Z,6.97
2023-03-06T15:47:09.503Z,5.38
2023-03-06T15:49:38.227Z,8.13
2023-03-06T15:52:06.676Z,5.40
2023-03-06T15:54:34.637Z,4.15
2023-03-06T15:57:05.393Z,4.40
2023-03-06T15:59:36.519Z,8.82
2023-03-06T16:02:13.891Z,10.38
2023-03-06T16:04:40.694Z,9.77
2023-03-06T16:07:07.543Z,10.63
2023-03-06T16:09:34.314Z,15.00
2023-03-06T16:12:01.162Z,14.18
2023-03-06T16:14:28.236Z,18.25
2023-03-06T16:16:55.197Z,18.77
2023-03-06T16:19:27.162Z,19.27
2023-03-06T16:21:55.776Z,17.70
2023-03-06T16:24:22.820Z,22.88
2023-03-06T16:26:51.826Z,20.90
2023-03-06T16:29:23.852Z,19.00
2023-03-06T16:31:50.988Z,18.33
2023-03-06T16:34:19.811Z,20.03
2023-03-06T16:36:48.445Z,20.88
2023-03-06T16:39:17.438Z,16.67
2023-03-06T16:41:45.956Z,17.63
2023-03-06T16:44:13.491Z,13.88
2023-03-06T16:46:45.626Z,12.27
2023-03-06T16:49:22.679Z,11.45
2023-03-06T16:51:49.873Z,10.40
2023-03-06T16:54:17.687Z,13.18
2023-03-06T16:56:44.679Z,10.63
2023-03-06T16:59:12.610Z,13.13
2023-03-06T17:01:42.677Z,14.75
2023-03-06T17:04:09.664Z,16.55
2023-03-06T17:06:36.761Z,18.55
2023-03-06T17:09:04.033Z,17.35
2023-03-06T17:11:30.935Z,16.73
2023-03-06T17:13:57.656Z,17.20
2023-03-06T17:16:24.401Z,22.85
2023-03-06T17:18:51.519Z,19.75
2023-03-06T17:21:18.512Z,20.10
2023-03-06T17:23:45.270Z,19.43
2023-03-06T17:26:15.023Z,18.90
2023-03-06T17:28:42.344Z,18.60
2023-03-06T17:31:23.992Z,17.52
2023-03-06T17:34:00.257Z,21.83
2023-03-06T17:36:28.086Z,20.27
2023-03-06T17:38:56.879Z,23.27
2023-03-06T17:41:24.632Z,21.30
2023-03-06T17:43:58.924Z,26.42
2023-03-06T17:46:25.969Z,19.13
2023-03-06T17:48:53.165Z,19.97
2023-03-06T17:51:19.877Z,23.60
2023-03-06T17:53:46.639Z,21.92
2023-03-06T17:56:14.244Z,24.77
2023-03-06T17:58:41.179Z,28.00
2023-03-06T18:01:15.434Z,23.03
2023-03-06T18:03:45.362Z,24.23
2023-03-06T18:06:12.234Z,23.85
2023-03-06T18:08:39.037Z,25.75
2023-03-06T18:11:09.632Z,23.48
2023-03-06T18:13:39.417Z,29.10
2023-03-06T18:16:07.541Z,26.20
2023-03-06T18:18:35.067Z,31.30
2023-03-06T18:21:06.927Z,25.60
2023-03-06T18:23:34.233Z,29.08
2023-03-06T18:26:13.337Z,28.57
2023-03-06T18:28:44.651Z,27.75
2023-03-06T18:31:20.336Z,27.98
2023-03-06T18:33:53.067Z,27.95
2023-03-06T18:36:21.877Z,27.60
2023-03-06T18:38:49.961Z,29.53
2023-03-06T18:41:19.029Z,25.92
2023-03-06T18:43:50.911Z,26.38
2023-03-06T18:46:19.872Z,32.67
2023-03-06T18:48:46.665Z,31.27
2023-03-06T18:51:14.060Z,31.30
2023-03-06T18:53:41.133Z,29.00
2023-03-06T18:56:13.360Z,26.90
2023-03-06T18:58:40.245Z,28.08
2023-03-06T19:01:07.482Z,25.80
2023-03-06T19:03:34.469Z,29.20
2023-03-06T19:06:07.386Z,29.23
2023-03-06T19:08:35.336Z,31.17
2023-03-06T19:11:04.313Z,31.67
2023-03-06T19:13:31.698Z,30.20
2023-03-06T19:15:58.506Z,28.33
2023-03-06T19:18:26.727Z,27.42
2023-03-06T19:20:54.294Z,32.15
2023-03-06T19:23:22.037Z,36.53
2023-03-06T19:25:59.521Z,38.08
2023-03-06T19:28:27.175Z,33.97
2023-03-06T19:31:27.570Z,33.17
2023-03-06T19:33:56.624Z,33.30
2023-03-06T19:36:27.442Z,33.15
2023-03-06T19:38:59.151Z,35.35
2023-03-06T19:41:26.510Z,28.17
2023-03-06T19:43:55.905Z,32.35
2023-03-06T19:46:24.141Z,35.60
2023-03-06T19:48:56.609Z,35.53
2023-03-06T19:51:24.031Z,31.63
2023-03-06T19:53:50.759Z,34.60
2023-03-06T19:56:23.602Z,38.88
2023-03-06T19:58:50.991Z,27.88
2023-03-06T20:01:20.412Z,32.90
2023-03-06T20:03:47.319Z,35.67
2023-03-06T20:06:17.457Z,45.60
2023-03-06T20:08:45.156Z,35.22
2023-03-06T20:11:38.703Z,31.58
2023-03-06T20:14:07.096Z,35.20
2023-03-06T20:16:34.262Z,27.35
2023-03-06T20:19:01.619Z,26.97
2023-03-06T20:21:31.301Z,20.95
2023-03-06T20:23:58.788Z,21.90
2023-03-06T20:26:27.711Z,19.10
2023-03-06T20:28:54.837Z,18.48
2023-03-06T20:31:24.434Z,17.40
2023-03-06T20:33:53.251Z,18.38
2023-03-06T20:36:22.847Z,15.40
2023-03-06T20:38:50.102Z,21.20
2023-03-06T20:41:18.619Z,18.92
2023-03-06T20:43:45.679Z,20.20
2023-03-06T20:46:13.528Z,22.10
2023-03-06T20:48:42.877Z,22.25
2023-03-06T20:51:25.865Z,22.90
2023-03-06T20:53:53.300Z,22.58
2023-03-06T20:56:23.575Z,19.30
2023-03-06T20:58:50.573Z,16.80
2023-03-06T21:01:29.088Z,15.93
2023-03-06T21:03:57.328Z,15.20
2023-03-06T21:06:25.412Z,17.85
2023-03-06T21:08:52.388Z,14.90
2023-03-06T21:11:19.168Z,14.38
2023-03-06T21:13:46.002Z,15.85
2023-03-06T21:16:15.793Z,20.92
2023-03-06T21:18:42.919Z,14.23
2023-03-06T21:21:12.732Z,11.97
2023-03-06T21:23:39.876Z,13.25
2023-03-06T21:26:07.365Z,6.93
2023-03-06T21:28:37.990Z,5.43
2023-03-06T21:31:10.335Z,7.90
2023-03-06T21:33:38.738Z,9.40
2023-03-06T21:36:06.098Z,9.73
2023-03-06T21:38:33.313Z,5.97
2023-03-06T21:41:24.041Z,6.45
2023-03-06T21:43:58.340Z,4.70
2023-03-06T21:46:25.612Z,5.30
2023-03-06T21:48:52.492Z,5.35
2023-03-06T21:51:20.974Z,2.53
2023-03-06T21:53:48.417Z,4.65
2023-03-06T21:56:17.903Z,2.78
2023-03-06T21:58:45.426Z,3.17
2023-03-06T22:01:24.128Z,3.17
2023-03-06T22:03:51.119Z,2.97
2023-03-06T22:06:20.967Z,4.72
2023-03-06T22:08:47.886Z,3.63
2023-03-06T22:11:20.271Z,4.00
2023-03-06T22:13:48.163Z,5.20
2023-03-06T22:16:15.624Z,3.42
2023-03-06T22:18:50.246Z,4.50
2023-03-06T22:21:19.549Z,4.20
2023-03-06T22:23:55.117Z,4.67
2023-03-06T22:26:22.133Z,5.35
2023-03-06T22:28:49.230Z,6.07
2023-03-06T22:31:21.420Z,5.13
2023-03-06T22:33:51.412Z,4.97
2023-03-06T22:36:18.926Z,3.97
2023-03-06T22:38:47.750Z,13.05
2023-03-06T22:41:16.963Z,7.85
2023-03-06T22:43:43.765Z,6.28
2023-03-06T22:46:13.354Z,13.45
2023-03-06T22:48:40.680Z,8.40
2023-03-06T22:51:09.902Z,9.45
2023-03-06T22:53:37.388Z,7.97
2023-03-06T22:56:06.716Z,6.15
2023-03-06T22:58:37.161Z,11.15
2023-03-06T23:01:12.067Z,10.23
2023-03-06T23:03:40.844Z,9.18
2023-03-06T23:06:10.517Z,7.75
2023-03-06T23:08:37.669Z,7.65
2023-03-06T23:11:10.039Z,8.75
2023-03-06T23:13:37.764Z,9.17
2023-03-06T23:16:06.766Z,8.02
2023-03-06T23:18:39.125Z,8.13
2023-03-06T23:21:10.902Z,14.30
2023-03-06T23:23:38.162Z,12.30
2023-03-06T23:26:08.322Z,7.90
2023-03-06T23:28:35.244Z,6.63
2023-03-06T23:31:17.171Z,4.95
2023-03-06T23:33:44.221Z,3.65
2023-03-06T23:36:13.557Z,6.55
2023-03-06T23:38:41.057Z,7.70
2023-03-06T23:41:11.446Z,7.00
2023-03-06T23:43:38.218Z,3.60
2023-03-06T23:46:06.982Z,6.03
2023-03-06T23:48:35.776Z,3.88
2023-03-06T23:51:07.662Z,8.20
2023-03-06T23:53:35.142Z,5.35
2023-03-06T23:56:04.294Z,5.32
2023-03-06T23:58:31.251Z,4.10
